sensor_id;sensor_type;location;lat;lon;timestamp;pressure;altitude;pressure_sealevel;temperature;humidity
13486;BME280;6815;59.336;17.998;2023-03-17T00:00:49;52196.94;;;-145.37;56.99
13486;BME280;6815;59.336;17.998;2023-03-17T00:03:21;52190.97;;;-145.37;57.23
13486;BME280;6815;59.336;17.998;2023-03-17T00:05:47;52290.78;;;-145.37;57.87
13486;BME280;6815;59.336;17.998;2023-03-17T00:08:25;52238.88;;;-145.37;57.91
13486;BME280;6815;59.336;17.998;2023-03-17T00:10:52;52198.94;;;-145.37;58.96
13486;BME280;6815;59.336;17.998;2023-03-17T00:13:17;52240.88;;;-145.37;59.88
13486;BME280;6815;59.336;17.998;2023-03-17T00:15:44;52163.00;;;-145.37;60.13
13486;BME280;6815;59.336;17.998;2023-03-17T00:18:13;52208.94;;;-145.37;60.40
13486;BME280;6815;59.336;17.998;2023-03-17T00:20:40;52212.91;;;-145.37;61.11
13486;BME280;6815;59.336;17.998;2023-03-17T00:23:18;52226.91;;;-145.37;61.62
13486;BME280;6815;59.336;17.998;2023-03-17T00:25:45;52196.94;;;-145.37;62.05
13486;BME280;6815;59.336;17.998;2023-03-17T00:28:21;52234.88;;;-145.37;62.80
13486;BME280;6815;59.336;17.998;2023-03-17T00:30:47;52228.88;;;-145.37;63.44
13486;BME280;6815;59.336;17.998;2023-03-17T00:33:16;52220.91;;;-145.37;64.52
13486;BME280;6815;59.336;17.998;2023-03-17T00:35:43;52212.91;;;-145.37;64.56
13486;BME280;6815;59.336;17.998;2023-03-17T00:38:18;52222.91;;;-145.37;65.72
13486;BME280;6815;59.336;17.998;2023-03-17T00:40:44;52214.91;;;-145.37;66.22
13486;BME280;6815;59.336;17.998;2023-03-17T00:43:11;52302.75;;;-145.37;66.19
13486;BME280;6815;59.336;17.998;2023-03-17T00:45:39;52220.91;;;-145.37;66.46
13486;BME280;6815;59.336;17.998;2023-03-17T00:48:12;52204.94;;;-145.37;67.68
13486;BME280;6815;59.336;17.998;2023-03-17T00:50:39;52202.94;;;-145.37;69.10
13486;BME280;6815;59.336;17.998;2023-03-17T00:53:05;52206.94;;;-145.37;70.27
13486;BME280;6815;59.336;17.998;2023-03-17T00:55:31;52232.88;;;-145.37;71.65
13486;BME280;6815;59.336;17.998;2023-03-17T00:57:56;52250.84;;;-145.37;72.40
13486;BME280;6815;59.336;17.998;2023-03-17T01:00:27;52202.94;;;-145.37;72.60
13486;BME280;6815;59.336;17.998;2023-03-17T01:02:55;52200.94;;;-145.37;74.34
13486;BME280;6815;59.336;17.998;2023-03-17T01:05:22;52232.88;;;-145.37;75.91
13486;BME280;6815;59.336;17.998;2023-03-17T01:07:52;52224.91;;;-145.37;75.21
13486;BME280;6815;59.336;17.998;2023-03-17T01:10:26;52208.94;;;-145.37;76.33
13486;BME280;6815;59.336;17.998;2023-03-17T01:12:55;52194.94;;;-145.37;76.96
13486;BME280;6815;59.336;17.998;2023-03-17T01:15:22;52196.94;;;-145.37;77.68
13486;BME280;6815;59.336;17.998;2023-03-17T01:17:50;52234.88;;;-145.37;77.68
13486;BME280;6815;59.336;17.998;2023-03-17T01:20:22;52250.84;;;-145.37;80.05
13486;BME280;6815;59.336;17.998;2023-03-17T01:22:49;52226.91;;;-145.37;80.88
13486;BME280;6815;59.336;17.998;2023-03-17T01:25:16;52196.94;;;-145.37;80.46
13486;BME280;6815;59.336;17.998;2023-03-17T01:27:42;52246.84;;;-145.37;80.74
13486;BME280;6815;59.336;17.998;2023-03-17T01:32:43;52204.94;;;-145.37;81.53
13486;BME280;6815;59.336;17.998;2023-03-17T01:35:10;52180.97;;;-145.37;82.02
13486;BME280;6815;59.336;17.998;2023-03-17T01:37:36;52200.94;;;-145.37;82.02
13486;BME280;6815;59.336;17.998;2023-03-17T01:40:02;52226.91;;;-145.37;82.57
13486;BME280;6815;59.336;17.998;2023-03-17T01:42:28;52210.91;;;-145.37;83.60
13486;BME280;6815;59.336;17.998;2023-03-17T01:45:05;52198.94;;;-145.37;84.18
13486;BME280;6815;59.336;17.998;2023-03-17T01:47:31;52254.84;;;-145.37;84.12
13486;BME280;6815;59.336;17.998;2023-03-17T01:50:00;52254.84;;;-145.37;84.65
13486;BME280;6815;59.336;17.998;2023-03-17T01:52:29;52212.91;;;-145.37;83.75
13486;BME280;6815;59.336;17.998;2023-03-17T01:55:14;52212.91;;;-145.37;83.76
13486;BME280;6815;59.336;17.998;2023-03-17T01:58:00;52159.03;;;-145.37;83.79
13486;BME280;6815;59.336;17.998;2023-03-17T02:00:27;52226.91;;;-145.37;84.40
13486;BME280;6815;59.336;17.998;2023-03-17T02:02:54;52214.91;;;-145.37;84.56
13486;BME280;6815;59.336;17.998;2023-03-17T02:05:28;52198.94;;;-145.37;83.18
13486;BME280;6815;59.336;17.998;2023-03-17T02:07:55;52202.94;;;-145.37;84.42
13486;BME280;6815;59.336;17.998;2023-03-17T02:10:22;52226.91;;;-145.37;84.25
13486;BME280;6815;59.336;17.998;2023-03-17T02:12:55;52192.97;;;-145.37;83.89
13486;BME280;6815;59.336;17.998;2023-03-17T02:15:21;52208.94;;;-145.37;82.72
13486;BME280;6815;59.336;17.998;2023-03-17T02:17:48;52232.88;;;-145.37;82.67
13486;BME280;6815;59.336;17.998;2023-03-17T02:22:52;52228.88;;;-145.37;82.86
13486;BME280;6815;59.336;17.998;2023-03-17T02:25:20;52228.88;;;-145.37;82.19
13486;BME280;6815;59.336;17.998;2023-03-17T02:27:50;52214.91;;;-145.37;82.09
13486;BME280;6815;59.336;17.998;2023-03-17T02:30:19;52220.91;;;-145.37;80.94
13486;BME280;6815;59.336;17.998;2023-03-17T02:32:44;52186.97;;;-145.37;80.89
13486;BME280;6815;59.336;17.998;2023-03-17T02:35:10;52180.97;;;-145.37;80.06
13486;BME280;6815;59.336;17.998;2023-03-17T02:37:37;52210.91;;;-145.37;79.43
13486;BME280;6815;59.336;17.998;2023-03-17T02:40:05;52202.94;;;-145.37;78.80
13486;BME280;6815;59.336;17.998;2023-03-17T02:42:32;52234.88;;;-145.37;79.58
13486;BME280;6815;59.336;17.998;2023-03-17T02:44:58;52230.88;;;-145.37;78.51
13486;BME280;6815;59.336;17.998;2023-03-17T02:47:23;52218.91;;;-145.37;79.06
13486;BME280;6815;59.336;17.998;2023-03-17T02:49:49;52220.91;;;-145.37;78.72
13486;BME280;6815;59.336;17.998;2023-03-17T02:52:15;52198.94;;;-145.37;78.75
13486;BME280;6815;59.336;17.998;2023-03-17T02:54:40;52272.81;;;-145.37;79.34
13486;BME280;6815;59.336;17.998;2023-03-17T02:57:07;52218.91;;;-145.37;79.41
13486;BME280;6815;59.336;17.998;2023-03-17T02:59:34;52244.84;;;-145.37;79.28
13486;BME280;6815;59.336;17.998;2023-03-17T03:02:00;52214.91;;;-145.37;80.46
13486;BME280;6815;59.336;17.998;2023-03-17T03:04:25;52212.91;;;-145.37;80.82
13486;BME280;6815;59.336;17.998;2023-03-17T03:06:52;52194.94;;;-145.37;80.43
13486;BME280;6815;59.336;17.998;2023-03-17T03:09:19;52220.91;;;-145.37;81.50
13486;BME280;6815;59.336;17.998;2023-03-17T03:11:45;52232.88;;;-145.37;82.23
13486;BME280;6815;59.336;17.998;2023-03-17T03:14:11;52212.91;;;-145.37;83.13
13486;BME280;6815;59.336;17.998;2023-03-17T03:16:37;52196.94;;;-145.37;83.23
13486;BME280;6815;59.336;17.998;2023-03-17T03:19:03;52208.94;;;-145.37;83.29
13486;BME280;6815;59.336;17.998;2023-03-17T03:21:29;52222.91;;;-145.37;83.87
13486;BME280;6815;59.336;17.998;2023-03-17T03:23:55;52224.91;;;-145.37;83.87
13486;BME280;6815;59.336;17.998;2023-03-17T03:26:20;52224.91;;;-145.37;83.42
13486;BME280;6815;59.336;17.998;2023-03-17T03:28:46;52224.91;;;-145.37;83.47
13486;BME280;6815;59.336;17.998;2023-03-17T03:31:13;52208.94;;;-145.37;83.44
13486;BME280;6815;59.336;17.998;2023-03-17T03:33:40;52184.97;;;-145.37;83.89
13486;BME280;6815;59.336;17.998;2023-03-17T03:36:06;52182.97;;;-145.37;83.93
13486;BME280;6815;59.336;17.998;2023-03-17T03:38:32;52240.88;;;-145.37;84.35
13486;BME280;6815;59.336;17.998;2023-03-17T03:40:58;52171.00;;;-145.37;84.28
13486;BME280;6815;59.336;17.998;2023-03-17T03:43:23;52210.91;;;-145.37;84.25
13486;BME280;6815;59.336;17.998;2023-03-17T03:45:50;52228.88;;;-145.37;84.40
13486;BME280;6815;59.336;17.998;2023-03-17T03:48:16;52204.94;;;-145.37;84.87
13486;BME280;6815;59.336;17.998;2023-03-17T03:50:41;52218.91;;;-145.37;85.44
13486;BME280;6815;59.336;17.998;2023-03-17T03:53:07;52216.91;;;-145.37;84.34
13486;BME280;6815;59.336;17.998;2023-03-17T03:55:32;52228.88;;;-145.37;84.52
13486;BME280;6815;59.336;17.998;2023-03-17T03:57:58;52232.88;;;-145.37;84.87
13486;BME280;6815;59.336;17.998;2023-03-17T04:00:23;52228.88;;;-145.37;85.46
13486;BME280;6815;59.336;17.998;2023-03-17T04:02:49;52196.94;;;-145.37;85.37
13486;BME280;6815;59.336;17.998;2023-03-17T04:05:16;52206.94;;;-145.37;85.36
13486;BME280;6815;59.336;17.998;2023-03-17T04:07:45;52190.97;;;-145.37;85.48
13486;BME280;6815;59.336;17.998;2023-03-17T04:10:14;52246.84;;;-145.37;84.35
13486;BME280;6815;59.336;17.998;2023-03-17T04:12:40;52202.94;;;-145.37;85.23
13486;BME280;6815;59.336;17.998;2023-03-17T04:15:07;52190.97;;;-145.37;85.36
13486;BME280;6815;59.336;17.998;2023-03-17T04:17:34;52214.91;;;-145.37;84.65
13486;BME280;6815;59.336;17.998;2023-03-17T04:19:59;52262.81;;;-145.37;84.71
13486;BME280;6815;59.336;17.998;2023-03-17T04:22:25;52180.97;;;-145.37;84.99
13486;BME280;6815;59.336;17.998;2023-03-17T04:24:51;52242.88;;;-145.37;83.93
13486;BME280;6815;59.336;17.998;2023-03-17T04:27:17;52180.97;;;-145.37;84.69
13486;BME280;6815;59.336;17.998;2023-03-17T04:29:43;52196.94;;;-145.37;84.68
13486;BME280;6815;59.336;17.998;2023-03-17T04:32:11;52218.91;;;-145.37;84.37
13486;BME280;6815;59.336;17.998;2023-03-17T04:34:38;52200.94;;;-145.37;85.56
13486;BME280;6815;59.336;17.998;2023-03-17T04:37:03;52226.91;;;-145.37;85.33
13486;BME280;6815;59.336;17.998;2023-03-17T04:39:29;52177.00;;;-145.37;85.57
13486;BME280;6815;59.336;17.998;2023-03-17T04:41:54;52226.91;;;-145.37;86.02
13486;BME280;6815;59.336;17.998;2023-03-17T04:44:20;52234.88;;;-145.37;86.26
13486;BME280;6815;59.336;17.998;2023-03-17T04:46:45;52188.97;;;-145.37;85.94
13486;BME280;6815;59.336;17.998;2023-03-17T04:49:11;52214.91;;;-145.37;85.60
13486;BME280;6815;59.336;17.998;2023-03-17T04:51:37;52208.94;;;-145.37;85.46
13486;BME280;6815;59.336;17.998;2023-03-17T04:54:03;52204.94;;;-145.37;86.31
13486;BME280;6815;59.336;17.998;2023-03-17T04:56:31;52228.88;;;-145.37;85.97
13486;BME280;6815;59.336;17.998;2023-03-17T04:58:56;52194.94;;;-145.37;85.90
13486;BME280;6815;59.336;17.998;2023-03-17T05:01:21;52218.91;;;-145.37;85.72
13486;BME280;6815;59.336;17.998;2023-03-17T05:03:47;52232.88;;;-145.37;85.42
13486;BME280;6815;59.336;17.998;2023-03-17T05:06:14;52226.91;;;-145.37;85.53
13486;BME280;6815;59.336;17.998;2023-03-17T05:08:40;52198.94;;;-145.37;85.06
13486;BME280;6815;59.336;17.998;2023-03-17T05:11:09;52167.00;;;-145.37;84.40
13486;BME280;6815;59.336;17.998;2023-03-17T05:13:35;52202.94;;;-145.37;84.22
13486;BME280;6815;59.336;17.998;2023-03-17T05:16:01;52230.88;;;-145.37;84.37
13486;BME280;6815;59.336;17.998;2023-03-17T05:18:28;52188.97;;;-145.37;83.87
13486;BME280;6815;59.336;17.998;2023-03-17T05:20:53;52224.91;;;-145.37;83.38
13486;BME280;6815;59.336;17.998;2023-03-17T05:23:19;52214.91;;;-145.37;83.34
13486;BME280;6815;59.336;17.998;2023-03-17T05:25:45;52220.91;;;-145.37;83.88
13486;BME280;6815;59.336;17.998;2023-03-17T05:28:11;52240.88;;;-145.37;83.27
13486;BME280;6815;59.336;17.998;2023-03-17T05:30:37;52226.91;;;-145.37;82.79
13486;BME280;6815;59.336;17.998;2023-03-17T05:33:03;52196.94;;;-145.37;82.97
13486;BME280;6815;59.336;17.998;2023-03-17T05:35:28;52194.94;;;-145.37;82.61
13486;BME280;6815;59.336;17.998;2023-03-17T05:37:54;52222.91;;;-145.37;82.24
13486;BME280;6815;59.336;17.998;2023-03-17T05:40:19;52202.94;;;-145.37;81.63
13486;BME280;6815;59.336;17.998;2023-03-17T05:42:45;52244.84;;;-145.37;81.83
13486;BME280;6815;59.336;17.998;2023-03-17T05:45:11;52242.88;;;-145.37;81.04
13486;BME280;6815;59.336;17.998;2023-03-17T05:47:37;52248.84;;;-145.37;80.85
13486;BME280;6815;59.336;17.998;2023-03-17T05:50:03;52186.97;;;-145.37;80.75
13486;BME280;6815;59.336;17.998;2023-03-17T05:52:29;52218.91;;;-145.37;79.46
13486;BME280;6815;59.336;17.998;2023-03-17T05:54:55;52182.97;;;-145.37;79.27
13486;BME280;6815;59.336;17.998;2023-03-17T05:57:22;52194.94;;;-145.37;78.46
13486;BME280;6815;59.336;17.998;2023-03-17T05:59:48;52270.81;;;-145.37;77.67
13486;BME280;6815;59.336;17.998;2023-03-17T06:02:15;52218.91;;;-145.37;77.57
13486;BME280;6815;59.336;17.998;2023-03-17T06:04:40;52177.00;;;-145.37;77.24
13486;BME280;6815;59.336;17.998;2023-03-17T06:07:07;52216.91;;;-145.37;76.59
13486;BME280;6815;59.336;17.998;2023-03-17T06:09:33;52214.91;;;-145.37;75.46
13486;BME280;6815;59.336;17.998;2023-03-17T06:11:59;52171.00;;;-145.37;74.85
13486;BME280;6815;59.336;17.998;2023-03-17T06:14:24;52165.00;;;-145.37;75.02
13486;BME280;6815;59.336;17.998;2023-03-17T06:16:50;52220.91;;;-145.37;74.83
13486;BME280;6815;59.336;17.998;2023-03-17T06:19:15;52194.94;;;-145.37;74.70
13486;BME280;6815;59.336;17.998;2023-03-17T06:21:41;52204.94;;;-145.37;75.17
13486;BME280;6815;59.336;17.998;2023-03-17T06:24:08;52230.88;;;-145.37;75.05
13486;BME280;6815;59.336;17.998;2023-03-17T06:26:34;52210.91;;;-145.37;74.63
13486;BME280;6815;59.336;17.998;2023-03-17T06:29:02;52220.91;;;-145.37;75.55
13486;BME280;6815;59.336;17.998;2023-03-17T06:31:27;52248.84;;;-145.37;75.83
13486;BME280;6815;59.336;17.998;2023-03-17T06:33:53;52177.00;;;-145.37;75.60
13486;BME280;6815;59.336;17.998;2023-03-17T06:36:19;52230.88;;;-145.37;75.51
13486;BME280;6815;59.336;17.998;2023-03-17T06:38:44;52222.91;;;-145.37;75.47
13486;BME280;6815;59.336;17.998;2023-03-17T06:41:10;52190.97;;;-145.37;75.87
13486;BME280;6815;59.336;17.998;2023-03-17T06:43:36;52244.84;;;-145.37;76.11
13486;BME280;6815;59.336;17.998;2023-03-17T06:46:03;52196.94;;;-145.37;75.82
13486;BME280;6815;59.336;17.998;2023-03-17T06:48:28;52222.91;;;-145.37;76.13
13486;BME280;6815;59.336;17.998;2023-03-17T06:50:55;52204.94;;;-145.37;75.59
13486;BME280;6815;59.336;17.998;2023-03-17T06:53:22;52250.84;;;-145.37;75.69
13486;BME280;6815;59.336;17.998;2023-03-17T06:55:48;52204.94;;;-145.37;75.35
13486;BME280;6815;59.336;17.998;2023-03-17T06:58:15;52240.88;;;-145.37;75.58
13486;BME280;6815;59.336;17.998;2023-03-17T07:00:41;52220.91;;;-145.37;75.38
13486;BME280;6815;59.336;17.998;2023-03-17T07:03:07;52212.91;;;-145.37;75.42
13486;BME280;6815;59.336;17.998;2023-03-17T07:05:34;52246.84;;;-145.37;75.35
13486;BME280;6815;59.336;17.998;2023-03-17T07:07:59;52264.81;;;-145.37;75.58
13486;BME280;6815;59.336;17.998;2023-03-17T07:10:25;52204.94;;;-145.37;75.04
13486;BME280;6815;59.336;17.998;2023-03-17T07:12:50;52210.91;;;-145.37;75.20
13486;BME280;6815;59.336;17.998;2023-03-17T07:15:16;52212.91;;;-145.37;75.09
13486;BME280;6815;59.336;17.998;2023-03-17T07:17:43;52224.91;;;-145.37;75.45
13486;BME280;6815;59.336;17.998;2023-03-17T07:20:11;52216.91;;;-145.37;75.40
13486;BME280;6815;59.336;17.998;2023-03-17T07:22:38;52254.84;;;-145.37;75.58
13486;BME280;6815;59.336;17.998;2023-03-17T07:25:04;52198.94;;;-145.37;75.64
13486;BME280;6815;59.336;17.998;2023-03-17T07:27:29;52244.84;;;-145.37;75.68
13486;BME280;6815;59.336;17.998;2023-03-17T07:29:55;52252.84;;;-145.37;75.55
13486;BME280;6815;59.336;17.998;2023-03-17T07:32:21;52224.91;;;-145.37;75.74
13486;BME280;6815;59.336;17.998;2023-03-17T07:34:46;52204.94;;;-145.37;75.30
13486;BME280;6815;59.336;17.998;2023-03-17T07:37:12;52246.84;;;-145.37;75.44
13486;BME280;6815;59.336;17.998;2023-03-17T07:39:38;52268.81;;;-145.37;75.59
13486;BME280;6815;59.336;17.998;2023-03-17T07:42:04;52222.91;;;-145.37;75.69
13486;BME280;6815;59.336;17.998;2023-03-17T07:44:29;52226.91;;;-145.37;75.09
13486;BME280;6815;59.336;17.998;2023-03-17T07:46:56;52212.91;;;-145.37;74.83
13486;BME280;6815;59.336;17.998;2023-03-17T07:49:22;52220.91;;;-145.37;74.33
13486;BME280;6815;59.336;17.998;2023-03-17T07:51:47;52242.88;;;-145.37;74.25
13486;BME280;6815;59.336;17.998;2023-03-17T07:54:13;52234.88;;;-145.37;74.46
13486;BME280;6815;59.336;17.998;2023-03-17T07:56:41;52228.88;;;-145.37;74.71
13486;BME280;6815;59.336;17.998;2023-03-17T07:59:07;52234.88;;;-145.37;74.50
13486;BME280;6815;59.336;17.998;2023-03-17T08:01:33;52240.88;;;-145.37;74.20
13486;BME280;6815;59.336;17.998;2023-03-17T08:03:59;52208.94;;;-145.37;74.20
13486;BME280;6815;59.336;17.998;2023-03-17T08:06:26;52238.88;;;-145.37;74.40
13486;BME280;6815;59.336;17.998;2023-03-17T08:08:52;52246.84;;;-145.37;74.15
13486;BME280;6815;59.336;17.998;2023-03-17T08:11:19;52224.91;;;-145.37;73.72
13486;BME280;6815;59.336;17.998;2023-03-17T08:13:45;52268.81;;;-145.37;73.92
13486;BME280;6815;59.336;17.998;2023-03-17T08:16:10;52220.91;;;-145.37;73.63
13486;BME280;6815;59.336;17.998;2023-03-17T08:18:37;52244.84;;;-145.37;73.51
13486;BME280;6815;59.336;17.998;2023-03-17T08:21:03;52288.78;;;-145.37;73.75
13486;BME280;6815;59.336;17.998;2023-03-17T08:23:30;52252.84;;;-145.37;73.24
13486;BME280;6815;59.336;17.998;2023-03-17T08:26:00;52190.97;;;-145.37;73.23
13486;BME280;6815;59.336;17.998;2023-03-17T08:28:27;52216.91;;;-145.37;73.39
13486;BME280;6815;59.336;17.998;2023-03-17T08:30:53;52220.91;;;-145.37;73.44
13486;BME280;6815;59.336;17.998;2023-03-17T08:33:19;52208.94;;;-145.37;73.48
13486;BME280;6815;59.336;17.998;2023-03-17T08:35:44;52210.91;;;-145.37;73.16
13486;BME280;6815;59.336;17.998;2023-03-17T08:38:10;52270.81;;;-145.37;73.27
13486;BME280;6815;59.336;17.998;2023-03-17T08:40:35;52248.84;;;-145.37;71.91
13486;BME280;6815;59.336;17.998;2023-03-17T08:43:01;52222.91;;;-145.37;71.31
13486;BME280;6815;59.336;17.998;2023-03-17T08:45:27;52220.91;;;-145.37;71.40
13486;BME280;6815;59.336;17.998;2023-03-17T08:47:53;52218.91;;;-145.37;71.02
13486;BME280;6815;59.336;17.998;2023-03-17T08:50:21;52252.84;;;-145.37;71.29
13486;BME280;6815;59.336;17.998;2023-03-17T08:52:48;52216.91;;;-145.37;71.43
13486;BME280;6815;59.336;17.998;2023-03-17T08:55:14;52216.91;;;-145.37;70.80
13486;BME280;6815;59.336;17.998;2023-03-17T08:57:40;52234.88;;;-145.37;70.52
13486;BME280;6815;59.336;17.998;2023-03-17T09:00:11;52178.97;;;-145.37;70.59
13486;BME280;6815;59.336;17.998;2023-03-17T09:02:38;52212.91;;;-145.37;70.83
13486;BME280;6815;59.336;17.998;2023-03-17T09:05:05;52256.84;;;-145.37;71.26
13486;BME280;6815;59.336;17.998;2023-03-17T09:07:32;52252.84;;;-145.37;70.77
13486;BME280;6815;59.336;17.998;2023-03-17T09:09:58;52234.88;;;-145.37;70.73
13486;BME280;6815;59.336;17.998;2023-03-17T09:12:24;52216.91;;;-145.37;70.67
13486;BME280;6815;59.336;17.998;2023-03-17T09:14:49;52248.84;;;-145.37;70.95
13486;BME280;6815;59.336;17.998;2023-03-17T09:17:15;52200.94;;;-145.37;70.88
13486;BME280;6815;59.336;17.998;2023-03-17T09:19:40;52218.91;;;-145.37;70.61
13486;BME280;6815;59.336;17.998;2023-03-17T09:22:11;52232.88;;;-145.37;70.90
13486;BME280;6815;59.336;17.998;2023-03-17T09:24:38;52238.88;;;-145.37;71.07
13486;BME280;6815;59.336;17.998;2023-03-17T09:27:03;52224.91;;;-145.37;70.73
13486;BME280;6815;59.336;17.998;2023-03-17T09:29:29;52208.94;;;-145.37;70.04
13486;BME280;6815;59.336;17.998;2023-03-17T09:31:55;52220.91;;;-145.37;69.56
13486;BME280;6815;59.336;17.998;2023-03-17T09:34:21;52284.78;;;-145.37;69.76
13486;BME280;6815;59.336;17.998;2023-03-17T09:36:46;52200.94;;;-145.37;69.56
13486;BME280;6815;59.336;17.998;2023-03-17T09:39:12;52226.91;;;-145.37;69.46
13486;BME280;6815;59.336;17.998;2023-03-17T09:42:00;52202.94;;;-145.37;68.38
13486;BME280;6815;59.336;17.998;2023-03-17T09:44:44;52212.91;;;-145.37;68.51
13486;BME280;6815;59.336;17.998;2023-03-17T09:49:56;52198.94;;;-145.37;66.97
13486;BME280;6815;59.336;17.998;2023-03-17T09:52:28;52224.91;;;-145.37;66.72
13486;BME280;6815;59.336;17.998;2023-03-17T09:54:54;52224.91;;;-145.37;66.09
13486;BME280;6815;59.336;17.998;2023-03-17T09:57:26;52230.88;;;-145.37;65.75
13486;BME280;6815;59.336;17.998;2023-03-17T09:59:59;52242.88;;;-145.37;65.54
13486;BME280;6815;59.336;17.998;2023-03-17T10:02:31;52226.91;;;-145.37;65.13
13486;BME280;6815;59.336;17.998;2023-03-17T10:05:04;52232.88;;;-145.37;65.12
13486;BME280;6815;59.336;17.998;2023-03-17T10:13:27;52252.84;;;-145.37;63.49
13486;BME280;6815;59.336;17.998;2023-03-17T10:16:01;52284.78;;;-145.37;63.64
13486;BME280;6815;59.336;17.998;2023-03-17T10:18:32;52214.91;;;-145.37;63.51
13486;BME280;6815;59.336;17.998;2023-03-17T10:21:04;52232.88;;;-145.37;63.22
13486;BME280;6815;59.336;17.998;2023-03-17T10:23:34;52242.88;;;-145.37;63.09
13486;BME280;6815;59.336;17.998;2023-03-17T10:26:16;52238.88;;;-145.37;63.33
13486;BME280;6815;59.336;17.998;2023-03-17T10:28:44;52260.84;;;-145.37;62.92
13486;BME280;6815;59.336;17.998;2023-03-17T10:31:15;52270.81;;;-145.37;63.01
13486;BME280;6815;59.336;17.998;2023-03-17T10:33:42;52214.91;;;-145.37;63.37
13486;BME280;6815;59.336;17.998;2023-03-17T10:36:09;52238.88;;;-145.37;63.43
13486;BME280;6815;59.336;17.998;2023-03-17T10:38:38;52256.84;;;-145.37;63.65
13486;BME280;6815;59.336;17.998;2023-03-17T10:41:08;52216.91;;;-145.37;64.34
13486;BME280;6815;59.336;17.998;2023-03-17T10:43:44;52208.94;;;-145.37;64.52
13486;BME280;6815;59.336;17.998;2023-03-17T10:46:20;52222.91;;;-145.37;64.88
13486;BME280;6815;59.336;17.998;2023-03-17T10:48:56;52242.88;;;-145.37;64.94
13486;BME280;6815;59.336;17.998;2023-03-17T10:51:32;52206.94;;;-145.37;64.37
13486;BME280;6815;59.336;17.998;2023-03-17T10:54:07;52216.91;;;-145.37;64.43
13486;BME280;6815;59.336;17.998;2023-03-17T10:56:39;52260.84;;;-145.37;64.85
13486;BME280;6815;59.336;17.998;2023-03-17T10:59:17;52270.81;;;-145.37;64.94
13486;BME280;6815;59.336;17.998;2023-03-17T11:01:48;52250.84;;;-145.37;65.10
13486;BME280;6815;59.336;17.998;2023-03-17T11:04:32;52228.88;;;-145.37;65.51
13486;BME280;6815;59.336;17.998;2023-03-17T11:07:05;52240.88;;;-145.37;66.32
13486;BME280;6815;59.336;17.998;2023-03-17T11:09:35;52204.94;;;-145.37;66.14
13486;BME280;6815;59.336;17.998;2023-03-17T11:12:22;52260.84;;;-145.37;65.44
13486;BME280;6815;59.336;17.998;2023-03-17T11:14:53;52242.88;;;-145.37;65.37
13486;BME280;6815;59.336;17.998;2023-03-17T11:20:46;52240.88;;;-145.37;66.25
13486;BME280;6815;59.336;17.998;2023-03-17T11:38:03;52230.88;;;-145.37;65.15
13486;BME280;6815;59.336;17.998;2023-03-17T11:40:34;52192.97;;;-145.37;64.81
13486;BME280;6815;59.336;17.998;2023-03-17T11:46:11;52268.81;;;-145.37;63.88
13486;BME280;6815;59.336;17.998;2023-03-17T11:49:06;52220.91;;;-145.37;64.08
13486;BME280;6815;59.336;17.998;2023-03-17T11:57:04;52218.91;;;-145.37;63.57
13486;BME280;6815;59.336;17.998;2023-03-17T11:59:38;52208.94;;;-145.37;63.99
13486;BME280;6815;59.336;17.998;2023-03-17T12:05:17;52248.84;;;-145.37;62.75
13486;BME280;6815;59.336;17.998;2023-03-17T12:07:47;52188.97;;;-145.37;63.23
13486;BME280;6815;59.336;17.998;2023-03-17T12:16:07;52248.84;;;-145.37;62.74
13486;BME280;6815;59.336;17.998;2023-03-17T12:21:24;52218.91;;;-145.37;62.38
13486;BME280;6815;59.336;17.998;2023-03-17T12:26:38;52212.91;;;-145.37;63.40
13486;BME280;6815;59.336;17.998;2023-03-17T12:32:04;52178.97;;;-145.37;62.46
13486;BME280;6815;59.336;17.998;2023-03-17T12:34:39;52222.91;;;-145.37;61.49
13486;BME280;6815;59.336;17.998;2023-03-17T12:37:07;52238.88;;;-145.37;60.77
13486;BME280;6815;59.336;17.998;2023-03-17T12:39:34;52248.84;;;-145.37;60.13
13486;BME280;6815;59.336;17.998;2023-03-17T12:53:32;52282.78;;;-145.37;58.75
13486;BME280;6815;59.336;17.998;2023-03-17T12:56:07;52242.88;;;-145.37;58.36
13486;BME280;6815;59.336;17.998;2023-03-17T12:58:42;52228.88;;;-145.37;58.59
13486;BME280;6815;59.336;17.998;2023-03-17T13:01:39;52244.84;;;-145.37;57.96
13486;BME280;6815;59.336;17.998;2023-03-17T13:04:32;52260.84;;;-145.37;58.07
13486;BME280;6815;59.336;17.998;2023-03-17T13:07:09;52230.88;;;-145.37;58.61
13486;BME280;6815;59.336;17.998;2023-03-17T13:20:39;52202.94;;;-145.37;60.39
13486;BME280;6815;59.336;17.998;2023-03-17T13:25:53;52234.88;;;-145.37;60.92
13486;BME280;6815;59.336;17.998;2023-03-17T13:28:25;52208.94;;;-145.37;61.10
13486;BME280;6815;59.336;17.998;2023-03-17T13:34:01;52188.97;;;-145.37;62.44
13486;BME280;6815;59.336;17.998;2023-03-17T13:36:46;52200.94;;;-145.37;62.69
13486;BME280;6815;59.336;17.998;2023-03-17T13:47:14;52240.88;;;-145.37;63.37
13486;BME280;6815;59.336;17.998;2023-03-17T13:49:46;52260.84;;;-145.37;63.55
13486;BME280;6815;59.336;17.998;2023-03-17T13:52:14;52228.88;;;-145.37;63.81
13486;BME280;6815;59.336;17.998;2023-03-17T13:54:58;52218.91;;;-145.37;64.12
13486;BME280;6815;59.336;17.998;2023-03-17T13:57:35;52224.91;;;-145.37;64.13
13486;BME280;6815;59.336;17.998;2023-03-17T14:00:26;52228.88;;;-145.37;64.10
13486;BME280;6815;59.336;17.998;2023-03-17T14:03:00;52224.91;;;-145.37;64.10
13486;BME280;6815;59.336;17.998;2023-03-17T14:05:30;52270.81;;;-145.37;64.28
13486;BME280;6815;59.336;17.998;2023-03-17T14:08:03;52248.84;;;-145.37;64.51
13486;BME280;6815;59.336;17.998;2023-03-17T14:10:32;52228.88;;;-145.37;64.82
13486;BME280;6815;59.336;17.998;2023-03-17T14:13:00;52232.88;;;-145.37;64.68
13486;BME280;6815;59.336;17.998;2023-03-17T14:15:38;52276.81;;;-145.37;64.76
13486;BME280;6815;59.336;17.998;2023-03-17T14:18:19;52244.84;;;-145.37;64.52
13486;BME280;6815;59.336;17.998;2023-03-17T14:20:59;52264.81;;;-145.37;64.44